createdAt,value
2017-05-12T04:14:01.395Z,45
2017-05-12T04:17:34.463Z,45
2017-05-12T04:21:19.938Z,45
2017-05-12T04:40:55.428Z,90
2017-05-12T05:28:49.237Z,160
2017-05-12T05:37:25.753Z,120
2017-05-12T06:48:15.078Z,330
2017-05-12T09:18:49.207Z,1150
2017-05-12T09:20:11.686Z,4000
2017-05-12T09:21:45.678Z,4795
2017-05-12T09:23:07.580Z,2140
2017-05-12T09:24:29.474Z,5795
2017-05-12T09:25:51.360Z,2445
2017-05-12T09:27:13.205Z,6385
2017-05-12T09:28:35.015Z,5870
2017-05-12T09:29:56.947Z,920
2017-05-12T09:31:18.826Z,730
2017-05-12T09:32:40.656Z,880
2017-05-12T09:34:02.561Z,5300
2017-05-12T09:35:24.579Z,1055
2017-05-12T09:36:46.440Z,3740
2017-05-12T09:38:08.410Z,5615
2017-05-12T09:39:30.306Z,4995
2017-05-12T09:40:52.211Z,4660
2017-05-12T09:42:20.369Z,4960
2017-05-12T09:43:42.595Z,970
2017-05-12T09:45:04.599Z,1120
2017-05-12T09:46:26.463Z,4815
2017-05-12T09:47:48.446Z,730
2017-05-12T09:49:10.399Z,765
2017-05-12T09:50:32.450Z,5885
2017-05-12T09:51:54.557Z,6075
2017-05-12T09:53:16.352Z,6650
2017-05-12T09:54:38.269Z,6640
2017-05-12T09:56:00.141Z,6295
2017-05-12T09:57:21.977Z,6180
2017-05-12T09:58:43.913Z,1045
2017-05-12T10:00:05.772Z,2820
2017-05-12T10:01:27.627Z,6215
2017-05-12T10:02:49.599Z,1020
2017-05-12T10:04:11.542Z,1125
2017-05-12T10:05:33.500Z,1425
2017-05-12T10:06:58.100Z,6455
2017-05-12T10:08:20.228Z,5640
2017-05-12T10:09:42.042Z,1815
2017-05-12T10:11:03.941Z,4885
2017-05-12T10:12:25.746Z,1560
2017-05-12T10:13:47.691Z,2055
2017-05-12T10:15:09.664Z,5855
2017-05-12T10:16:31.607Z,1920
2017-05-12T10:17:53.948Z,1515
2017-05-12T10:19:15.876Z,1235
2017-05-12T10:20:37.677Z,990
2017-05-12T10:21:59.757Z,1445
2017-05-12T10:23:21.801Z,6560
2017-05-12T10:24:43.928Z,6920
2017-05-12T10:26:06.182Z,0
2017-05-12T10:27:28.072Z,0
2017-05-12T10:28:49.964Z,0
2017-05-12T10:30:11.790Z,0
2017-05-12T10:31:33.633Z,0
2017-05-12T10:32:55.569Z,0
2017-05-12T10:34:17.455Z,0
2017-05-12T10:35:39.269Z,0
2017-05-12T10:37:01.375Z,0
2017-05-12T10:38:23.336Z,0
2017-05-12T10:39:45.200Z,0
2017-05-12T10:41:07.089Z,0
2017-05-12T10:42:28.947Z,0
2017-05-12T10:43:50.917Z,0
2017-05-12T10:45:18.555Z,0
2017-05-12T10:46:40.362Z,0
2017-05-12T10:48:02.326Z,0
2017-05-12T10:49:24.198Z,0
2017-05-12T10:50:55.958Z,0
2017-05-12T10:52:17.739Z,0
2017-05-12T10:53:39.706Z,0
2017-05-12T10:55:02.810Z,0
2017-05-12T10:56:24.655Z,0
2017-05-12T10:57:46.519Z,0
2017-05-12T10:59:08.439Z,0
2017-05-12T11:00:30.316Z,0
2017-05-12T11:01:52.238Z,0
2017-05-12T11:03:14.155Z,0
2017-05-12T11:04:36.134Z,0
2017-05-12T11:06:09.332Z,0
2017-05-12T11:07:31.733Z,0
2017-05-12T11:08:54.519Z,0
2017-05-12T11:10:19.265Z,0
2017-05-12T11:11:41.527Z,0
2017-05-12T11:13:05.548Z,0
2017-05-12T11:14:27.983Z,0
2017-05-12T11:15:51.038Z,0
2017-05-12T11:17:17.477Z,0
2017-05-12T11:18:44.928Z,0
2017-05-12T11:20:23.765Z,0
2017-05-12T11:22:09.631Z,0
2017-05-12T11:23:36.670Z,0
2017-05-12T11:25:03.443Z,0
2017-05-12T11:26:29.725Z,0
2017-05-12T11:27:54.688Z,0
2017-05-12T11:29:17.856Z,0
2017-05-12T11:30:41.706Z,0
2017-05-12T11:32:04.646Z,0
2017-05-12T11:33:27.927Z,0
2017-05-12T11:34:51.254Z,0
2017-05-12T11:36:14.058Z,0
2017-05-12T11:37:36.849Z,0
2017-05-12T11:38:59.395Z,0
2017-05-12T11:40:21.996Z,0
2017-05-12T11:41:44.544Z,0
2017-05-12T11:43:06.653Z,0
2017-05-12T11:44:28.848Z,0
2017-05-12T11:48:55.168Z,0
2017-05-12T11:50:17.089Z,0
2017-05-12T11:51:39.117Z,0
2017-05-12T11:53:00.909Z,0
2017-05-12T11:54:23.337Z,0
2017-05-12T11:55:47.438Z,0
2017-05-12T11:57:09.521Z,0
2017-05-12T11:58:31.438Z,0
2017-05-12T11:59:53.346Z,0
2017-05-12T12:01:15.149Z,0
2017-05-12T12:02:37.247Z,0
2017-05-12T12:03:59.173Z,0
2017-05-12T12:05:21.098Z,0
2017-05-12T12:06:43.018Z,0
2017-05-12T12:08:12.067Z,0
2017-05-12T12:09:34.180Z,0
2017-05-12T12:10:56.067Z,0
2017-05-12T12:12:17.954Z,0
2017-05-12T12:13:39.745Z,0
2017-05-12T12:15:01.673Z,0
2017-05-12T12:16:23.653Z,0
2017-05-12T12:17:45.526Z,0
2017-05-12T12:19:17.112Z,0
2017-05-12T12:20:38.965Z,0
2017-05-12T12:22:00.927Z,0
2017-05-12T12:23:22.748Z,0
2017-05-12T12:24:44.836Z,0
2017-05-12T12:26:06.754Z,0
2017-05-12T12:27:28.550Z,0
2017-05-12T12:28:58.089Z,0
2017-05-12T12:30:20.434Z,0
2017-05-12T12:31:42.212Z,0
2017-05-12T12:33:04.052Z,0
2017-05-12T12:34:26.031Z,0
2017-05-12T12:35:47.831Z,0
2017-05-12T12:37:09.795Z,0
2017-05-12T12:38:31.774Z,0
2017-05-12T12:39:53.652Z,0
2017-05-12T12:41:15.447Z,0
2017-05-12T12:42:37.262Z,0
2017-05-12T12:43:59.095Z,0
2017-05-12T12:45:20.979Z,0
2017-05-12T12:46:42.850Z,0
2017-05-12T12:48:04.810Z,0
2017-05-12T12:50:58.438Z,0
2017-05-12T12:52:20.518Z,0
2017-05-12T12:53:42.367Z,0
2017-05-12T12:55:04.258Z,0
2017-05-12T12:56:26.158Z,0
2017-05-12T12:57:47.980Z,0
2017-05-12T12:59:09.871Z,0
2017-05-12T13:00:31.732Z,0
2017-05-12T13:01:53.574Z,0
2017-05-12T13:03:15.469Z,0
2017-05-12T13:04:37.417Z,0
2017-05-12T13:05:59.281Z,0
2017-05-12T13:07:21.144Z,0
2017-05-12T13:08:43.020Z,0
2017-05-12T13:10:04.934Z,0
2017-05-12T13:11:26.732Z,0
2017-05-12T13:12:48.623Z,0
2017-05-12T13:14:10.530Z,0
2017-05-12T13:15:32.412Z,0
2017-05-12T13:16:54.292Z,0
2017-05-12T13:18:16.245Z,0
2017-05-12T13:19:38.188Z,0
2017-05-12T13:21:00.093Z,0
2017-05-12T13:22:21.967Z,0
2017-05-12T13:23:43.833Z,0
2017-05-12T13:25:05.614Z,0
2017-05-12T13:26:27.488Z,0
2017-05-12T13:27:49.263Z,0
2017-05-12T13:29:11.036Z,0
2017-05-12T13:30:32.924Z,0
2017-05-12T13:32:07.183Z,0
2017-05-12T13:33:29.001Z,0
2017-05-12T13:34:50.807Z,0
2017-05-12T13:36:12.558Z,0
2017-05-12T13:37:34.351Z,0
2017-05-12T13:38:56.121Z,0
2017-05-12T13:40:17.942Z,0
2017-05-12T13:41:40.911Z,0
2017-05-12T13:43:02.700Z,0
2017-05-12T13:44:24.450Z,0
2017-05-12T13:45:46.231Z,0
2017-05-12T13:47:07.986Z,0
2017-05-12T13:48:29.965Z,0
2017-05-12T13:49:51.753Z,0
2017-05-12T13:51:13.500Z,0
2017-05-12T13:52:35.269Z,0
2017-05-12T13:53:57.120Z,0
2017-05-12T13:55:18.889Z,0
2017-05-12T13:56:40.688Z,0
2017-05-12T13:58:02.614Z,0
2017-05-12T13:59:24.458Z,0
2017-05-12T14:00:46.262Z,0
2017-05-12T14:02:08.001Z,0
2017-05-12T14:03:29.988Z,0
2017-05-12T14:04:51.767Z,0
2017-05-12T14:06:13.628Z,0
2017-05-12T14:07:35.345Z,0
2017-05-12T14:08:57.096Z,0
2017-05-12T14:10:18.932Z,0
2017-05-12T14:11:40.655Z,0
2017-05-12T14:13:02.477Z,0
2017-05-12T14:14:38.390Z,0
2017-05-12T14:16:00.357Z,0
2017-05-12T14:17:22.089Z,0
2017-05-12T14:18:43.830Z,0
2017-05-12T14:20:05.612Z,0
2017-05-12T14:21:27.389Z,0
2017-05-12T14:22:49.256Z,0
2017-05-12T14:24:10.972Z,0
2017-05-12T14:25:33.829Z,0
2017-05-12T14:26:55.626Z,0
2017-05-12T14:28:17.600Z,0
2017-05-12T14:29:39.434Z,0
2017-05-12T14:31:01.334Z,0
2017-05-12T14:32:23.144Z,0
2017-05-12T14:33:45.042Z,0
2017-05-12T14:35:13.974Z,0
2017-05-12T14:36:36.801Z,0
2017-05-12T14:37:58.702Z,0
2017-05-12T14:39:20.536Z,0
2017-05-12T14:40:42.435Z,0
2017-05-12T14:42:04.626Z,0
2017-05-12T14:43:26.528Z,0
2017-05-12T14:44:48.325Z,0
2017-05-12T14:46:10.217Z,0
2017-05-12T14:47:32.062Z,0
2017-05-12T14:48:54.007Z,0
2017-05-12T14:50:15.790Z,0
2017-05-12T14:51:37.540Z,0
2017-05-12T14:52:59.471Z,0
2017-05-12T14:54:21.442Z,0
2017-05-12T14:55:43.250Z,0
2017-05-12T14:57:05.175Z,0
2017-05-12T14:58:26.936Z,0
2017-05-12T14:59:48.769Z,0
2017-05-12T15:01:10.641Z,0
2017-05-12T15:02:32.594Z,0
2017-05-12T15:03:54.478Z,0
2017-05-12T15:05:16.353Z,0
2017-05-12T15:06:38.273Z,0
2017-05-12T15:08:00.158Z,0
2017-05-12T15:09:21.967Z,0
2017-05-12T15:10:43.977Z,0
2017-05-12T15:12:05.768Z,0
2017-05-12T15:13:27.545Z,0
2017-05-12T15:14:49.523Z,0
2017-05-12T15:16:11.543Z,0
2017-05-12T15:17:45.345Z,0
2017-05-12T15:19:07.286Z,0
2017-05-12T15:20:29.109Z,0
2017-05-12T15:21:50.984Z,0
2017-05-12T15:23:12.870Z,0
2017-05-12T15:24:34.670Z,0
2017-05-12T15:25:56.614Z,0
2017-05-12T15:27:28.288Z,0
2017-05-12T15:28:50.132Z,0
2017-05-12T15:30:11.920Z,0
2017-05-12T15:31:33.889Z,0
2017-05-12T15:32:55.962Z,0
2017-05-12T15:34:17.759Z,0
2017-05-12T15:35:39.620Z,0
2017-05-12T15:37:01.591Z,0
2017-05-12T15:38:35.289Z,0
2017-05-12T15:39:57.142Z,0
2017-05-12T15:41:19.030Z,0
2017-05-12T15:42:40.897Z,0
2017-05-12T15:44:02.931Z,0
2017-05-12T15:45:24.850Z,0
2017-05-12T15:46:46.786Z,0
2017-05-12T15:48:08.825Z,0
2017-05-12T15:52:00.639Z,0
2017-05-12T15:53:23.122Z,0
2017-05-12T15:54:45.093Z,0
2017-05-12T15:56:07.965Z,0
2017-05-12T15:57:29.885Z,0
2017-05-12T16:00:09.783Z,0
2017-05-12T16:01:31.584Z,0
2017-05-12T16:02:53.473Z,0
2017-05-12T16:04:15.381Z,0
2017-05-12T16:05:37.186Z,0
2017-05-12T16:06:59.064Z,0
2017-05-12T16:08:21.020Z,0
2017-05-12T16:09:42.894Z,0
2017-05-12T16:11:05.961Z,0
2017-05-12T16:12:27.761Z,0
2017-05-12T16:13:49.695Z,0
2017-05-12T16:15:11.576Z,0
2017-05-12T16:16:33.626Z,0
2017-05-12T16:17:55.514Z,0
2017-05-12T16:19:17.373Z,0
2017-05-12T16:20:39.218Z,0
2017-05-12T16:22:01.051Z,0
2017-05-12T16:23:22.937Z,0
2017-05-12T16:24:44.780Z,0
2017-05-12T16:26:06.643Z,0
2017-05-12T16:27:29.919Z,0
2017-05-12T16:28:52.024Z,0
2017-05-12T16:30:13.959Z,0
2017-05-12T16:31:40.539Z,0
2017-05-12T16:33:02.495Z,0
2017-05-12T16:34:24.327Z,0
2017-05-12T16:35:46.100Z,0
2017-05-12T16:37:07.968Z,0
2017-05-12T16:38:29.844Z,0
2017-05-12T16:39:51.641Z,0
2017-05-12T16:41:14.597Z,0
2017-05-12T16:42:36.406Z,0
2017-05-12T16:43:58.405Z,0
2017-05-12T16:45:20.355Z,0
2017-05-12T16:46:42.354Z,0
2017-05-12T16:48:04.286Z,0
2017-05-12T16:49:26.207Z,0
2017-05-12T16:50:48.080Z,0
2017-05-12T16:52:13.140Z,0
2017-05-12T16:53:35.014Z,0
2017-05-12T16:54:56.953Z,0
2017-05-12T16:56:18.941Z,0
2017-05-12T16:57:40.792Z,0
2017-05-12T16:59:02.663Z,0
2017-05-12T17:00:24.841Z,0
2017-05-12T17:01:47.052Z,0
2017-05-12T17:03:08.983Z,0
2017-05-12T17:04:30.919Z,0
2017-05-12T17:05:52.892Z,0
2017-05-12T17:07:14.845Z,0
2017-05-12T17:08:36.816Z,0
2017-05-12T17:09:58.685Z,0
2017-05-12T17:11:20.601Z,0
2017-05-12T17:12:53.899Z,0
2017-05-12T17:14:15.822Z,0
2017-05-12T17:15:37.881Z,0
2017-05-12T17:16:59.907Z,0
2017-05-12T17:18:21.869Z,0
2017-05-12T17:19:43.840Z,0
2017-05-12T17:21:05.826Z,0
2017-05-12T17:22:27.864Z,0
2017-05-12T17:23:49.762Z,0
2017-05-12T17:25:11.719Z,0
2017-05-12T17:26:33.599Z,0
2017-05-12T17:27:55.495Z,0
2017-05-12T17:29:17.454Z,0
2017-05-12T17:30:39.345Z,0
2017-05-12T17:32:01.274Z,0
2017-05-12T17:33:38.463Z,0
2017-05-12T17:35:01.167Z,0
2017-05-12T17:36:23.424Z,0
2017-05-12T17:37:45.583Z,0
2017-05-12T17:39:07.771Z,0
2017-05-12T17:40:29.982Z,0
2017-05-12T17:41:53.494Z,0
2017-05-12T17:43:16.223Z,0
2017-05-12T17:44:53.285Z,0
2017-05-12T17:46:29.079Z,0
2017-05-12T17:47:53.196Z,0
2017-05-12T17:49:42.807Z,0
2017-05-12T17:51:05.471Z,0
2017-05-12T17:53:05.306Z,0
2017-05-12T17:54:51.014Z,0
2017-05-12T18:02:20.186Z,0
2017-05-12T18:03:45.342Z,0
2017-05-12T18:05:19.340Z,0
2017-05-12T18:06:49.804Z,0
2017-05-12T18:08:14.659Z,0
2017-05-12T18:14:35.880Z,0
2017-05-12T18:17:55.584Z,0
2017-05-12T18:19:24.229Z,0
2017-05-12T18:37:04.025Z,0
2017-05-12T18:51:23.775Z,0
2017-05-12T18:53:16.759Z,0
2017-05-12T18:54:52.493Z,0
2017-05-12T18:56:34.073Z,0
2017-05-12T19:20:47.387Z,0
2017-05-12T19:30:31.617Z,0
2017-05-12T19:32:16.420Z,0
2017-05-12T19:33:44.877Z,0
2017-05-12T19:49:06.950Z,0
2017-05-12T19:52:18.373Z,0
2017-05-12T19:53:53.032Z,0
2017-05-12T19:55:20.118Z,0
2017-05-12T19:56:51.604Z,0
2017-05-12T19:58:22.047Z,0
2017-05-12T20:01:41.936Z,0
